Time;durP1;ratioP1;P1;durP2;ratioP2;P2;SDS_P1;SDS_P2;PMS_P1;PMS_P2;Temp;Humidity;BMP_temperature;BMP_pressure;BME280_temperature;BME280_humidity;BME280_pressure;Samples;Min_cycle;Max_cycle;Signal;HPM_P1;HPM_P2
2024/04/16 00:00:06;;;;;;;10.05;5.72;;;;;;;22.17;49.15;98907.50;5451807;26;19999;-26
2024/04/16 00:02:32;;;;;;;8.73;5.72;;;;;;;21.97;49.09;98890.53;5450759;26;20017;-25
2024/04/16 00:04:58;;;;;;;11.30;5.63;;;;;;;22.13;48.91;98912.72;5451864;26;20435;-25
2024/04/16 00:07:23;;;;;;;10.07;5.65;;;;;;;21.80;49.65;98911.97;5452057;26;20335;-25
2024/04/16 00:09:49;;;;;;;12.52;5.80;;;;;;;21.76;49.53;98919.06;5451742;26;20011;-25
2024/04/16 00:12:14;;;;;;;8.85;5.85;;;;;;;21.93;49.49;98929.34;5451468;26;20007;-26
2024/04/16 00:14:40;;;;;;;8.75;5.50;;;;;;;21.95;49.71;98924.44;5451446;26;20009;-27
2024/04/16 00:17:05;;;;;;;7.15;5.10;;;;;;;21.97;48.86;98923.06;5451304;26;20063;-26
2024/04/16 00:19:30;;;;;;;11.90;5.78;;;;;;;22.00;49.38;98916.22;5443223;26;20007;-26
2024/04/16 00:21:57;;;;;;;8.63;5.25;;;;;;;22.02;49.16;98916.72;5425626;26;20085;-26
2024/04/16 00:24:22;;;;;;;9.48;5.60;;;;;;;22.02;49.26;98914.00;5451182;26;20013;-27
2024/04/16 00:26:47;;;;;;;12.05;5.80;;;;;;;22.01;49.66;98912.44;5451139;26;19999;-26
2024/04/16 00:29:13;;;;;;;10.30;6.00;;;;;;;22.06;49.35;98909.59;5451367;26;20009;-26
2024/04/16 00:31:38;;;;;;;10.88;6.25;;;;;;;22.00;49.77;98914.31;5450975;26;19995;-26
2024/04/16 00:34:06;;;;;;;17.13;6.50;;;;;;;21.89;50.03;98907.47;5450995;26;20005;-26
2024/04/16 00:36:31;;;;;;;12.32;6.07;;;;;;;21.89;50.15;98912.09;5451362;26;20070;-26
2024/04/16 00:38:57;;;;;;;12.43;6.25;;;;;;;21.88;50.41;98915.91;5450611;26;19995;-24
2024/04/16 00:41:22;;;;;;;10.20;6.00;;;;;;;21.82;50.18;98917.91;5451639;26;20414;-26
2024/04/16 00:43:47;;;;;;;10.82;5.68;;;;;;;21.80;50.16;98922.78;5450819;26;20007;-26
2024/04/16 00:46:13;;;;;;;11.55;5.60;;;;;;;21.77;50.37;98918.00;5451023;26;19994;-26
2024/04/16 00:48:39;;;;;;;9.77;5.75;;;;;;;21.67;50.75;98908.13;5450582;26;20396;-26
2024/04/16 00:51:05;;;;;;;9.40;6.00;;;;;;;21.54;50.40;98906.19;5450450;26;19998;-26
2024/04/16 00:53:30;;;;;;;11.48;6.07;;;;;;;21.45;51.00;98917.69;5450866;26;19999;-25
2024/04/16 00:55:57;;;;;;;10.65;5.50;;;;;;;21.43;50.98;98905.53;5450547;26;19995;-24
2024/04/16 00:58:22;;;;;;;9.25;5.80;;;;;;;21.54;51.03;98909.69;5450886;26;19995;-25
2024/04/16 01:00:48;;;;;;;9.55;5.80;;;;;;;21.50;51.38;98922.22;5450509;26;20066;-24
2024/04/16 01:03:13;;;;;;;9.85;5.70;;;;;;;21.27;51.32;98922.00;5450442;26;20009;-24
2024/04/16 01:05:40;;;;;;;8.68;6.00;;;;;;;21.35;50.96;98923.22;5452557;26;20450;-26
2024/04/16 01:08:08;;;;;;;15.20;5.97;;;;;;;20.47;53.12;98928.19;5454400;26;20063;-26
2024/04/16 01:10:41;;;;;;;11.85;6.03;;;;;;;20.06;53.76;98925.94;5454213;26;19998;-25
2024/04/16 01:13:09;;;;;;;8.30;5.80;;;;;;;19.87;54.37;98931.25;5454319;26;19994;-25
2024/04/16 01:15:34;;;;;;;8.60;6.00;;;;;;;19.74;54.62;98919.22;5453796;26;19999;-26
2024/04/16 01:18:02;;;;;;;9.25;5.70;;;;;;;19.78;53.90;98909.47;5454016;26;20012;-26
2024/04/16 01:20:28;;;;;;;9.55;5.57;;;;;;;19.56;54.53;98923.41;5453662;26;20070;-26
2024/04/16 01:22:53;;;;;;;9.23;5.50;;;;;;;19.37;55.21;98917.09;5453420;26;19999;-26
2024/04/16 01:25:19;;;;;;;10.27;5.90;;;;;;;19.29;55.69;98921.19;5453221;26;20015;-26
2024/04/16 01:27:44;;;;;;;12.35;5.95;;;;;;;19.50;54.52;98911.84;5453576;26;19999;-26
2024/04/16 01:30:10;;;;;;;8.45;5.70;;;;;;;19.08;55.63;98905.13;5453489;26;19995;-25
2024/04/16 01:32:35;;;;;;;9.90;5.47;;;;;;;19.14;55.59;98909.41;5453564;26;20422;-25
2024/04/16 01:35:01;;;;;;;10.35;6.15;;;;;;;19.53;54.47;98900.50;5453777;26;20010;-25
2024/04/16 01:37:26;;;;;;;14.15;5.93;;;;;;;19.72;54.24;98897.94;5453385;26;20007;-26
2024/04/16 01:39:52;;;;;;;7.43;5.28;;;;;;;19.77;54.22;98902.47;5452978;26;20018;-25
2024/04/16 01:42:17;;;;;;;8.90;5.60;;;;;;;19.99;53.62;98901.16;5453274;26;19995;-26
2024/04/16 01:44:56;;;;;;;8.95;5.50;;;;;;;20.19;53.41;98902.84;5453071;26;20013;-25
2024/04/16 01:47:21;;;;;;;10.75;5.60;;;;;;;20.40;52.53;98887.22;5453524;26;20317;-26
2024/04/16 01:49:46;;;;;;;7.53;5.28;;;;;;;20.44;52.54;98882.84;5454082;26;20013;-25
2024/04/16 01:52:12;;;;;;;8.98;5.50;;;;;;;20.43;52.34;98881.25;5452035;26;20009;-24
2024/04/16 01:54:37;;;;;;;10.02;5.97;;;;;;;20.55;52.16;98884.31;5453759;26;20085;-25
2024/04/16 01:57:05;;;;;;;11.10;5.85;;;;;;;20.43;52.37;98879.34;5453309;26;19999;-26
2024/04/16 01:59:31;;;;;;;10.15;6.30;;;;;;;20.43;53.23;98883.94;5453417;26;20443;-27
2024/04/16 02:01:56;;;;;;;7.68;5.45;;;;;;;20.50;52.72;98881.66;5452953;26;19995;-25
2024/04/16 02:04:21;;;;;;;8.70;5.68;;;;;;;20.36;52.79;98888.88;5453134;26;20293;-25
2024/04/16 02:06:47;;;;;;;7.20;5.40;;;;;;;20.30;52.73;98878.13;5452466;26;20347;-25
2024/04/16 02:09:12;;;;;;;9.57;5.82;;;;;;;20.27;53.00;98865.19;5453214;26;19995;-26
2024/04/16 02:11:38;;;;;;;11.48;6.00;;;;;;;20.07;53.73;98868.16;5453197;26;20071;-25
2024/04/16 02:14:03;;;;;;;8.60;5.93;;;;;;;19.60;55.26;98866.97;5453010;26;19999;-26
2024/04/16 02:16:29;;;;;;;8.70;6.13;;;;;;;19.73;55.68;98866.34;5452177;26;20641;-26
2024/04/16 02:18:54;;;;;;;11.65;6.55;;;;;;;19.72;55.96;98873.63;5452759;26;19994;-26
2024/04/16 02:21:19;;;;;;;9.18;6.43;;;;;;;19.22;56.42;98864.06;5452712;26;20034;-26
2024/04/16 02:23:46;;;;;;;14.00;6.28;;;;;;;19.13;57.68;98853.88;5452811;26;20435;-26
2024/04/16 02:26:12;;;;;;;12.80;6.35;;;;;;;19.37;56.89;98853.13;5452880;26;20007;-26
2024/04/16 02:28:37;;;;;;;11.13;6.90;;;;;;;19.43;56.41;98852.00;5453579;26;20064;-26
2024/04/16 02:31:02;;;;;;;13.32;6.75;;;;;;;19.70;55.72;98856.06;5452680;26;19999;-26
2024/04/16 02:33:28;;;;;;;12.23;7.00;;;;;;;19.76;55.51;98854.94;5452899;26;20013;-26
2024/04/16 02:35:55;;;;;;;12.45;6.72;;;;;;;19.73;56.67;98855.53;5452419;26;20175;-26
2024/04/16 02:38:21;;;;;;;8.63;6.75;;;;;;;19.91;55.53;98872.91;5453255;26;20003;-26
2024/04/16 02:40:46;;;;;;;11.50;7.28;;;;;;;19.53;56.25;98884.31;5453319;26;20018;-25
2024/04/16 02:43:12;;;;;;;13.73;6.78;;;;;;;19.56;55.95;98877.53;5453275;26;20040;-26
2024/04/16 02:45:38;;;;;;;13.05;6.90;;;;;;;19.71;56.36;98879.28;5452666;26;19995;-26
2024/04/16 02:48:04;;;;;;;15.13;6.60;;;;;;;19.80;55.53;98893.81;5452273;26;20544;-25
2024/04/16 02:50:30;;;;;;;10.80;7.15;;;;;;;19.52;56.33;98895.38;5452350;26;20009;-26
2024/04/16 02:52:55;;;;;;;9.90;6.00;;;;;;;19.14;56.56;98887.03;5451963;26;20014;-26
2024/04/16 02:55:21;;;;;;;10.57;6.30;;;;;;;18.60;57.41;98894.06;5452524;26;20071;-26
2024/04/16 02:57:47;;;;;;;13.63;6.28;;;;;;;18.14;59.17;98897.75;5452075;26;20049;-25
2024/04/16 03:00:12;;;;;;;10.85;6.05;;;;;;;18.28;58.21;98892.56;5452301;26;20013;-40
2024/04/16 03:02:40;;;;;;;12.30;5.97;;;;;;;17.86;59.25;98895.63;5452114;26;20013;-40
2024/04/16 03:05:06;;;;;;;9.20;5.88;;;;;;;17.73;59.89;98895.09;5452342;26;20073;-38
2024/04/16 03:07:31;;;;;;;9.07;5.97;;;;;;;17.91;59.47;98893.72;5452190;26;20006;-39
2024/04/16 03:09:56;;;;;;;13.07;6.05;;;;;;;18.16;58.97;98900.13;5451789;26;20500;-36
2024/04/16 03:12:22;;;;;;;10.68;6.30;;;;;;;18.47;57.90;98894.66;5451807;26;20052;-37
2024/04/16 03:14:54;;;;;;;10.93;6.63;;;;;;;18.70;56.71;98898.59;5450994;26;20026;-40
2024/04/16 03:17:19;;;;;;;8.10;5.90;;;;;;;18.92;56.11;98901.75;5451812;26;20011;-39
2024/04/16 03:19:45;;;;;;;7.75;6.13;;;;;;;19.05;56.18;98894.91;5451361;26;20010;-39
2024/04/16 03:22:10;;;;;;;9.25;6.25;;;;;;;19.17;56.21;98905.34;5425914;26;20014;-38
2024/04/16 03:24:36;;;;;;;11.15;6.50;;;;;;;19.35;55.21;98917.34;5415583;26;20411;-38
2024/04/16 03:27:01;;;;;;;11.70;6.53;;;;;;;19.38;54.37;98919.50;5413940;26;20007;-39
2024/04/16 03:29:27;;;;;;;10.98;5.47;;;;;;;19.47;53.88;98919.69;5415689;26;20003;-39
2024/04/16 03:31:52;;;;;;;10.73;5.85;;;;;;;19.58;54.10;98923.91;5415607;26;20520;-39
2024/04/16 03:34:17;;;;;;;10.18;5.82;;;;;;;19.59;54.25;98925.53;5415612;26;20000;-39
2024/04/16 03:36:43;;;;;;;8.07;5.32;;;;;;;19.58;54.44;98931.22;5415569;26;19999;-39
2024/04/16 03:39:09;;;;;;;10.70;5.70;;;;;;;19.62;54.30;98933.06;5415809;26;20010;-39
2024/04/16 03:41:34;;;;;;;10.52;5.82;;;;;;;19.63;54.79;98929.28;5415541;26;19996;-39
2024/04/16 03:43:59;;;;;;;11.32;5.90;;;;;;;19.66;54.87;98933.28;5415523;26;19999;-40
2024/04/16 03:46:25;;;;;;;14.57;6.68;;;;;;;19.61;54.65;98927.94;5415379;26;20090;-40
2024/04/16 03:48:50;;;;;;;11.50;6.13;;;;;;;19.76;54.40;98932.44;5447475;26;20075;-38
2024/04/16 03:51:16;;;;;;;15.07;6.15;;;;;;;19.74;54.58;98932.72;5452018;26;20331;-40
2024/04/16 03:53:41;;;;;;;17.45;6.70;;;;;;;19.70;54.59;98927.06;5452309;26;20071;-39
2024/04/16 03:56:06;;;;;;;15.68;6.43;;;;;;;19.85;55.65;98931.53;5451445;26;20080;-39
2024/04/16 03:58:34;;;;;;;16.70;6.55;;;;;;;19.87;54.52;98925.84;5451443;26;20030;-39
2024/04/16 04:01:00;;;;;;;13.00;6.70;;;;;;;19.86;54.55;98925.06;5443098;26;19996;-40
2024/04/16 04:03:32;;;;;;;21.90;6.90;;;;;;;19.74;55.09;98932.72;5419352;26;20017;-39
2024/04/16 04:05:58;;;;;;;21.10;6.70;;;;;;;19.73;55.30;98926.50;5452203;26;20071;-41
2024/04/16 04:08:24;;;;;;;13.45;6.97;;;;;;;19.94;54.39;98923.63;5452343;26;19999;-40
2024/04/16 04:10:49;;;;;;;11.80;6.78;;;;;;;19.66;55.54;98925.19;5452262;26;19995;-41
2024/04/16 04:13:15;;;;;;;20.38;6.55;;;;;;;19.78;55.13;98922.97;5452487;26;20303;-43
2024/04/16 04:15:40;;;;;;;18.85;7.18;;;;;;;19.83;55.17;98914.81;5452335;26;19998;-40
2024/04/16 04:18:06;;;;;;;23.92;7.18;;;;;;;19.87;55.07;98918.56;5451931;26;20022;-42
2024/04/16 04:20:32;;;;;;;16.52;7.07;;;;;;;19.71;56.28;98920.56;5452493;26;20014;-40
2024/04/16 04:22:57;;;;;;;22.77;9.02;;;;;;;19.82;63.77;98942.91;5451909;26;20013;-41
2024/04/16 04:25:23;;;;;;;18.85;8.95;;;;;;;19.80;57.05;98953.19;5454414;26;20321;-41
2024/04/16 04:27:49;;;;;;;14.93;8.05;;;;;;;19.72;56.36;98934.88;5479955;26;20423;-41
2024/04/16 04:30:15;;;;;;;21.95;7.38;;;;;;;19.48;57.02;98949.09;5459771;26;20007;-38
2024/04/16 04:32:40;;;;;;;20.10;7.78;;;;;;;20.22;57.14;98949.00;5468488;26;20392;-40
2024/04/16 04:35:09;;;;;;;16.70;7.75;;;;;;;20.45;54.49;98957.41;5479175;26;20447;-37
2024/04/16 04:37:34;;;;;;;23.33;8.10;;;;;;;20.61;53.58;98956.16;5451020;26;20096;-41
2024/04/16 04:39:59;;;;;;;24.92;8.77;;;;;;;20.59;54.34;98949.41;5453142;26;20015;-40
2024/04/16 04:42:26;;;;;;;19.77;8.32;;;;;;;20.62;53.61;98949.66;5487772;26;19999;-40
2024/04/16 04:44:52;;;;;;;17.45;8.10;;;;;;;20.66;53.20;98949.91;5488211;26;19998;-41
2024/04/16 04:47:19;;;;;;;21.65;8.00;;;;;;;20.45;54.36;98946.59;5470066;26;20013;-40
2024/04/16 04:49:44;;;;;;;28.15;14.68;;;;;;;20.42;54.49;98953.38;5451688;26;20007;-40
2024/04/16 04:52:10;;;;;;;26.83;15.88;;;;;;;20.39;54.86;98950.44;5452028;26;20076;-39
2024/04/16 04:54:35;;;;;;;23.65;9.55;;;;;;;20.43;54.69;98951.50;5452100;26;20388;-39
2024/04/16 04:57:01;;;;;;;21.05;8.40;;;;;;;20.50;53.75;98946.53;5466087;26;20427;-39
2024/04/16 04:59:26;;;;;;;14.80;8.32;;;;;;;20.67;53.31;98956.91;5488310;26;19994;-41
2024/04/16 05:01:52;;;;;;;21.83;9.35;;;;;;;20.62;54.17;98960.47;5462015;26;20415;-42
2024/04/16 05:04:17;;;;;;;19.80;8.88;;;;;;;20.60;53.41;98951.84;5449157;26;20413;-38
2024/04/16 05:06:43;;;;;;;19.80;8.70;;;;;;;20.61;53.00;98950.75;5469487;26;20006;-42
2024/04/16 05:09:08;;;;;;;20.23;8.70;;;;;;;20.20;53.42;98936.84;5464497;26;20006;-42
2024/04/16 05:11:34;;;;;;;18.70;9.20;;;;;;;20.19;54.40;98941.47;5452012;26;19998;-40
2024/04/16 05:13:59;;;;;;;11.48;8.30;;;;;;;19.90;55.86;98936.88;5434728;26;20003;-41
2024/04/16 05:16:25;;;;;;;15.45;8.63;;;;;;;19.75;56.10;98920.03;5431381;26;19998;-39
2024/04/16 05:18:50;;;;;;;20.13;8.88;;;;;;;19.92;55.55;98915.00;5478248;26;20006;-40
2024/04/16 05:21:15;;;;;;;15.65;8.77;;;;;;;19.83;55.78;98904.00;5474520;26;19998;-40
2024/04/16 05:23:41;;;;;;;17.65;9.15;;;;;;;19.74;55.83;98908.41;5456009;26;20284;-39
2024/04/16 05:26:07;;;;;;;20.42;8.70;;;;;;;19.92;55.23;98907.72;5451744;26;20063;-39
2024/04/16 05:28:32;;;;;;;23.58;8.88;;;;;;;20.04;55.31;98918.13;5451905;26;20438;-40
2024/04/16 05:30:59;;;;;;;18.00;8.80;;;;;;;20.22;55.28;98922.00;5450619;26;20517;-38
2024/04/16 05:33:25;;;;;;;25.23;9.40;;;;;;;20.34;54.40;98937.78;5450284;26;20747;-40
2024/04/16 05:35:50;;;;;;;18.13;9.10;;;;;;;20.44;54.25;98948.47;5449817;26;20093;-41
2024/04/16 05:38:16;;;;;;;19.60;8.77;;;;;;;20.35;54.97;98954.81;5450671;26;19999;-43
2024/04/16 05:40:41;;;;;;;20.55;8.80;;;;;;;20.59;54.19;98957.50;5451382;26;20006;-45
2024/04/16 05:43:07;;;;;;;19.02;9.15;;;;;;;20.81;52.99;98968.63;5450708;26;20454;-40
2024/04/16 05:45:32;;;;;;;23.15;9.55;;;;;;;20.67;54.61;98979.31;5450297;26;19999;-40
2024/04/16 05:47:58;;;;;;;18.50;9.30;;;;;;;20.84;54.30;98986.16;5449960;26;19999;-39
2024/04/16 05:50:23;;;;;;;22.52;10.23;;;;;;;21.23;53.76;98971.59;5451298;26;19999;-41
2024/04/16 05:52:49;;;;;;;20.25;9.40;;;;;;;21.44;53.24;98964.81;5453626;26;20459;-40
2024/04/16 05:55:14;;;;;;;19.88;9.55;;;;;;;21.61;52.93;98944.50;5453915;26;19998;-41
2024/04/16 05:57:40;;;;;;;18.65;8.88;;;;;;;21.93;51.59;98949.09;5454115;26;20006;-40
2024/04/16 06:00:06;;;;;;;19.05;9.10;;;;;;;22.14;51.00;98949.56;5450795;26;20018;-41
2024/04/16 06:02:32;;;;;;;17.00;9.55;;;;;;;22.38;50.89;98938.56;5447948;26;19994;-42
2024/04/16 06:04:57;;;;;;;20.00;9.15;;;;;;;22.47;49.62;98940.56;5454751;26;20005;-37
2024/04/16 06:07:22;;;;;;;18.50;9.10;;;;;;;22.75;49.55;98938.63;5430432;26;19995;-40
2024/04/16 06:09:48;;;;;;;20.67;9.05;;;;;;;23.01;48.78;98938.88;5454440;26;19995;-40
2024/04/16 06:12:15;;;;;;;21.60;9.63;;;;;;;22.99;48.43;98925.63;5453405;26;19999;-44
2024/04/16 06:14:40;;;;;;;30.40;9.60;;;;;;;23.25;48.64;98919.66;5453405;26;20423;-41
2024/04/16 06:17:06;;;;;;;19.95;9.20;;;;;;;23.73;47.91;98921.72;5451738;26;20006;-41
2024/04/16 06:19:31;;;;;;;21.35;9.20;;;;;;;23.70;47.50;98908.75;5461291;26;19990;-41
2024/04/16 06:21:56;;;;;;;25.63;8.50;;;;;;;24.43;45.63;98922.09;5471360;26;20002;-39
2024/04/16 06:24:22;;;;;;;20.58;9.95;;;;;;;24.95;43.89;98929.56;5467362;26;20005;-42
2024/04/16 06:26:47;;;;;;;15.13;8.60;;;;;;;25.49;41.64;98929.28;5466114;26;20019;-36
2024/04/16 06:29:12;;;;;;;20.00;8.88;;;;;;;26.02;40.85;98921.81;5460043;26;20063;-38
2024/04/16 06:31:38;;;;;;;19.73;8.32;;;;;;;26.27;39.96;98934.56;5453428;26;20002;-40
2024/04/16 06:34:03;;;;;;;20.60;8.63;;;;;;;26.32;39.63;98925.38;5441274;26;19995;-45
2024/04/16 06:36:29;;;;;;;17.52;8.88;;;;;;;26.50;39.03;98921.44;5417776;26;20003;-41
2024/04/16 06:38:54;;;;;;;21.67;9.35;;;;;;;26.81;38.72;98914.88;5417629;26;20010;-46
2024/04/16 06:41:19;;;;;;;23.48;9.52;;;;;;;27.05;38.64;98918.84;5417495;26;20000;-40
2024/04/16 06:43:45;;;;;;;27.23;8.30;;;;;;;27.25;38.68;98920.03;5417643;26;20332;-39
2024/04/16 06:46:10;;;;;;;29.92;9.85;;;;;;;27.63;37.65;98922.56;5417682;26;20347;-40
2024/04/16 06:48:36;;;;;;;23.52;8.65;;;;;;;27.83;37.32;98917.34;5420305;26;20033;-41
2024/04/16 06:51:01;;;;;;;29.02;9.20;;;;;;;27.96;36.35;98913.53;5454050;26;20007;-40
2024/04/16 06:53:27;;;;;;;24.38;8.75;;;;;;;28.18;36.19;98912.31;5453748;26;20002;-40
2024/04/16 06:56:02;;;;;;;24.55;12.07;;;;;;;28.62;35.77;98918.03;5453874;26;20003;-42
2024/04/16 06:58:28;;;;;;;32.42;10.80;;;;;;;28.81;35.34;98911.16;5452265;26;20029;-40
2024/04/16 07:00:57;;;;;;;22.65;10.93;;;;;;;29.00;35.17;98894.91;5454412;26;20006;-42
2024/04/16 07:03:25;;;;;;;22.90;9.55;;;;;;;29.28;34.87;98899.63;5453895;26;20006;-41
2024/04/16 07:05:51;;;;;;;14.25;8.00;;;;;;;29.39;34.48;98905.41;5453902;26;20340;-39
2024/04/16 07:08:18;;;;;;;23.17;8.25;;;;;;;29.56;34.15;98902.34;5453609;26;19995;-41
2024/04/16 07:10:45;;;;;;;19.70;7.68;;;;;;;29.70;33.32;98890.16;5418103;26;20023;-41
2024/04/16 07:13:10;;;;;;;21.50;7.15;;;;;;;29.72;33.61;98891.41;5417134;26;20003;-37
2024/04/16 07:15:36;;;;;;;23.80;7.40;;;;;;;29.88;32.68;98894.19;5417635;26;20006;-39
2024/04/16 07:18:02;;;;;;;26.10;8.45;;;;;;;29.70;33.39;98892.91;5417634;26;20400;-45
2024/04/16 07:20:28;;;;;;;27.52;9.07;;;;;;;29.60;33.21;98896.97;5424603;26;20075;-40
2024/04/16 07:22:53;;;;;;;26.08;9.73;;;;;;;29.33;33.98;98902.13;5453317;26;20006;-41
2024/04/16 07:25:19;;;;;;;27.15;9.40;;;;;;;28.89;34.90;98901.22;5453706;26;20085;-39
2024/04/16 07:27:44;;;;;;;27.52;9.30;;;;;;;28.95;35.35;98899.81;5453138;26;19998;-41
2024/04/16 07:30:10;;;;;;;29.63;9.27;;;;;;;28.75;35.85;98898.84;5453719;26;20423;-40
2024/04/16 07:32:35;;;;;;;23.63;8.65;;;;;;;29.02;35.04;98887.13;5453043;26;20483;-43
2024/04/16 07:35:00;;;;;;;27.77;8.27;;;;;;;29.14;34.49;98891.81;5452995;26;19994;-41
2024/04/16 07:37:26;;;;;;;21.40;7.05;;;;;;;29.36;33.18;98889.66;5453084;26;19994;-40
2024/04/16 07:39:51;;;;;;;21.92;8.02;;;;;;;29.58;32.84;98872.63;5452527;26;19994;-42
2024/04/16 07:42:17;;;;;;;19.58;7.50;;;;;;;29.86;32.78;98884.75;5452854;26;20370;-41
2024/04/16 07:44:42;;;;;;;29.50;8.40;;;;;;;30.08;32.79;98888.78;5452999;26;19995;-38
2024/04/16 07:47:07;;;;;;;24.52;8.15;;;;;;;30.24;33.27;98892.31;5452838;26;19995;-42
2024/04/16 07:49:33;;;;;;;24.10;7.95;;;;;;;30.75;31.56;98886.84;5452915;26;20339;-39
2024/04/16 07:51:58;;;;;;;26.20;8.50;;;;;;;31.14;32.28;98883.34;5453541;26;20010;-42
2024/04/16 07:54:24;;;;;;;20.27;8.13;;;;;;;31.55;31.19;98892.03;5453013;26;19995;-41
2024/04/16 07:56:50;;;;;;;28.20;7.47;;;;;;;31.28;30.06;98894.63;5452590;26;19995;-38
2024/04/16 07:59:16;;;;;;;22.55;7.82;;;;;;;31.54;29.92;98893.16;5452813;26;20069;-40
2024/04/16 08:01:41;;;;;;;19.48;7.13;;;;;;;32.02;29.20;98884.59;5452977;26;19999;-42
2024/04/16 08:04:06;;;;;;;20.10;7.32;;;;;;;32.43;27.89;98882.09;5452567;26;19994;-41
2024/04/16 08:06:32;;;;;;;17.40;6.20;;;;;;;32.41;28.03;98881.66;5452861;26;20040;-39
2024/04/16 08:08:57;;;;;;;19.42;6.78;;;;;;;32.60;27.36;98876.06;5453392;26;20435;-38
2024/04/16 08:11:23;;;;;;;16.23;6.47;;;;;;;31.63;28.72;98866.25;5452743;26;20021;-41
2024/04/16 08:13:50;;;;;;;16.85;6.05;;;;;;;32.14;28.64;98874.19;5451169;26;20328;-40
2024/04/16 08:16:16;;;;;;;13.93;5.72;;;;;;;32.67;28.10;98878.09;5452293;26;20071;-41
2024/04/16 08:18:41;;;;;;;9.60;6.00;;;;;;;33.01;28.07;98875.41;5452464;26;20430;-40
2024/04/16 08:21:06;;;;;;;13.20;5.82;;;;;;;33.60;26.17;98870.16;5452741;26;19995;-40
2024/04/16 08:23:32;;;;;;;13.85;5.68;;;;;;;33.92;26.24;98866.94;5452465;26;20431;-40
2024/04/16 08:26:01;;;;;;;15.52;6.25;;;;;;;33.97;26.57;98856.34;5453002;26;20437;-41
2024/04/16 08:28:27;;;;;;;11.23;5.60;;;;;;;34.34;25.11;98869.22;5453025;26;20021;-41
2024/04/16 08:30:54;;;;;;;13.88;5.60;;;;;;;34.28;25.11;98868.78;5452830;26;19999;-41
2024/04/16 08:33:22;;;;;;;14.05;5.70;;;;;;;33.98;25.72;98865.38;5451864;26;20022;-41
2024/04/16 08:35:49;;;;;;;20.52;5.68;;;;;;;34.48;25.40;98871.28;5452423;26;20013;-38
2024/04/16 08:38:14;;;;;;;13.52;5.15;;;;;;;34.76;24.83;98862.38;5452173;26;19995;-36
2024/04/16 08:40:40;;;;;;;9.55;5.18;;;;;;;34.92;24.60;98855.72;5451977;26;20042;-40
2024/04/16 08:43:06;;;;;;;9.95;5.45;;;;;;;35.07;23.44;98843.53;5452567;26;19995;-35
2024/04/16 08:45:31;;;;;;;16.27;5.47;;;;;;;35.36;22.22;98838.91;5452314;26;20005;-36
2024/04/16 08:48:01;;;;;;;16.40;5.78;;;;;;;35.17;22.53;98842.81;5451483;26;19991;-38
2024/04/16 08:50:27;;;;;;;11.10;5.07;;;;;;;35.03;23.97;98846.31;5450810;26;19994;-38
2024/04/16 08:52:57;;;;;;;11.43;5.22;;;;;;;35.19;24.11;98839.69;5450968;26;20027;-39
2024/04/16 08:55:23;;;;;;;13.52;5.20;;;;;;;35.69;23.12;98842.53;5450000;26;20018;-39
2024/04/16 08:57:49;;;;;;;14.30;4.95;;;;;;;35.76;22.05;98833.47;5441140;26;20436;-36
2024/04/16 09:00:17;;;;;;;15.48;5.18;;;;;;;35.93;21.44;98829.06;5447848;26;20031;-39
2024/04/16 09:02:44;;;;;;;14.45;4.97;;;;;;;35.66;21.21;98821.16;5441535;26;20003;-35
2024/04/16 09:05:09;;;;;;;11.63;4.57;;;;;;;35.51;22.11;98811.25;5450821;26;20067;-43
2024/04/16 09:07:36;;;;;;;12.30;4.85;;;;;;;35.03;22.45;98801.28;5450194;26;20017;-40
2024/04/16 09:10:14;;;;;;;14.63;5.00;;;;;;;35.21;22.37;98804.13;5445710;26;19999;-41
2024/04/16 09:12:43;;;;;;;14.38;5.28;;;;;;;35.32;21.86;98806.91;5450214;26;20073;-36
2024/04/16 09:15:11;;;;;;;9.43;5.05;;;;;;;34.92;22.95;98798.50;5450568;26;19998;-38
2024/04/16 09:17:44;;;;;;;13.75;4.90;;;;;;;34.92;22.16;98793.00;5452319;26;19995;-41
2024/04/16 09:20:13;;;;;;;10.73;4.20;;;;;;;35.34;21.00;98797.03;5451661;26;20439;-38
2024/04/16 09:22:38;;;;;;;11.68;4.22;;;;;;;35.57;19.94;98793.13;5450767;26;20427;-39
2024/04/16 09:25:06;;;;;;;12.85;4.32;;;;;;;35.70;19.43;98791.56;5451033;26;20001;-38
2024/04/16 09:27:31;;;;;;;13.23;4.87;;;;;;;35.91;20.04;98776.91;5427163;26;20019;-36
2024/04/16 09:30:12;;;;;;;11.00;4.75;;;;;;;35.94;20.97;98781.63;5418491;26;20049;-37
2024/04/16 09:32:38;;;;;;;13.60;4.72;;;;;;;35.77;21.54;98772.16;5418294;26;20014;-39
2024/04/16 09:35:04;;;;;;;11.55;4.40;;;;;;;35.31;21.33;98767.41;5417612;26;20447;-36
2024/04/16 09:37:29;;;;;;;13.35;4.53;;;;;;;35.66;20.16;98760.28;5417979;26;20042;-36
2024/04/16 09:39:59;;;;;;;10.07;4.30;;;;;;;35.76;20.50;98756.75;5419583;26;20041;-41
2024/04/16 09:42:25;;;;;;;11.82;4.40;;;;;;;35.90;20.27;98755.16;5419177;26;19999;-37
2024/04/16 09:44:51;;;;;;;13.95;3.80;;;;;;;35.94;18.90;98755.94;5418766;26;20067;-38
2024/04/16 09:47:18;;;;;;;11.05;4.10;;;;;;;36.22;18.88;98754.34;5417427;26;19996;-38
2024/04/16 09:49:44;;;;;;;12.45;4.25;;;;;;;36.48;19.09;98753.03;5416599;26;20488;-36
2024/04/16 09:52:13;;;;;;;13.95;4.18;;;;;;;36.62;18.83;98744.66;5417851;26;20006;-40
2024/04/16 09:54:43;;;;;;;10.13;4.32;;;;;;;36.67;19.50;98735.16;5418319;26;20007;-39
2024/04/16 09:57:13;;;;;;;9.57;4.30;;;;;;;36.09;19.65;98726.25;5418038;26;20085;-38
2024/04/16 09:59:40;;;;;;;13.77;4.70;;;;;;;35.24;20.24;98725.94;5418400;26;20007;-38
2024/04/16 10:02:08;;;;;;;12.15;4.40;;;;;;;35.33;19.73;98718.03;5447878;26;20014;-37
2024/04/16 10:04:35;;;;;;;12.40;4.50;;;;;;;35.29;19.57;98716.47;5454878;26;20039;-38
2024/04/16 10:07:01;;;;;;;14.35;4.10;;;;;;;35.37;19.73;98704.22;5454389;26;20010;-40
2024/04/16 10:09:28;;;;;;;15.70;4.30;;;;;;;34.97;19.82;98717.97;5454360;26;19995;-39
2024/04/16 10:11:55;;;;;;;10.50;3.78;;;;;;;34.99;19.49;98718.38;5454180;26;19998;-34
2024/04/16 10:14:20;;;;;;;16.35;4.43;;;;;;;34.81;19.66;98712.03;5454361;26;20010;-42
2024/04/16 10:16:48;;;;;;;7.60;3.75;;;;;;;34.01;19.47;98705.38;5454720;26;20006;-40
2024/04/16 10:19:15;;;;;;;8.97;4.10;;;;;;;33.99;20.40;98701.44;5454487;26;19995;-37
2024/04/16 10:21:41;;;;;;;11.57;4.30;;;;;;;34.32;19.54;98696.88;5454172;26;19995;-42
2024/04/16 10:24:10;;;;;;;9.95;4.05;;;;;;;34.17;19.83;98687.75;5454074;26;19999;-36
2024/04/16 10:26:42;;;;;;;15.40;4.60;;;;;;;34.30;20.10;98686.22;5454361;26;20450;-37
2024/04/16 10:29:14;;;;;;;13.60;4.03;;;;;;;34.41;19.99;98677.97;5453892;26;20013;-38
2024/04/16 10:31:40;;;;;;;10.35;4.20;;;;;;;34.67;19.61;98682.41;5453617;26;20007;-40
2024/04/16 10:34:06;;;;;;;11.80;4.30;;;;;;;34.66;18.83;98676.06;5451941;26;20336;-37
2024/04/16 10:36:33;;;;;;;10.13;4.20;;;;;;;34.62;18.81;98674.47;5453232;26;19994;-40
2024/04/16 10:38:58;;;;;;;12.43;4.22;;;;;;;35.00;18.73;98670.22;5453763;26;20034;-40
2024/04/16 10:41:28;;;;;;;9.90;4.00;;;;;;;34.99;18.92;98670.59;5453955;26;20006;-39
2024/04/16 10:43:55;;;;;;;10.50;3.95;;;;;;;34.69;18.56;98676.47;5453578;26;20439;-36
2024/04/16 10:46:22;;;;;;;11.60;4.43;;;;;;;33.75;20.12;98665.03;5453897;26;20035;-37
2024/04/16 10:48:48;;;;;;;14.63;4.65;;;;;;;33.75;19.45;98670.53;5453850;26;20439;-39
2024/04/16 10:51:14;;;;;;;11.43;4.43;;;;;;;33.36;20.43;98659.22;5453495;26;19995;-46
2024/04/16 10:53:40;;;;;;;13.75;4.50;;;;;;;34.13;19.50;98653.78;5453984;26;20070;-40
2024/04/16 10:56:07;;;;;;;16.27;5.00;;;;;;;34.51;18.96;98643.28;5453548;26;20003;-40
2024/04/16 10:58:34;;;;;;;12.93;3.90;;;;;;;34.47;18.94;98648.78;5453492;26;19995;-39
2024/04/16 11:01:00;;;;;;;8.98;3.85;;;;;;;33.68;19.10;98648.44;5453214;26;20412;-41
2024/04/16 11:03:26;;;;;;;12.93;4.28;;;;;;;34.15;18.89;98635.66;5454098;26;19994;-40
2024/04/16 11:05:51;;;;;;;10.65;3.80;;;;;;;34.78;17.92;98639.00;5453733;26;19999;-38
2024/04/16 11:08:17;;;;;;;7.35;3.78;;;;;;;35.21;17.47;98639.06;5453574;26;20010;-41
2024/04/16 11:10:49;;;;;;;11.98;3.88;;;;;;;35.34;17.23;98639.44;5453369;26;19999;-41
2024/04/16 11:13:17;;;;;;;13.10;4.10;;;;;;;35.69;17.08;98637.03;5453177;26;19998;-37
2024/04/16 11:15:42;;;;;;;;;;;;;;;35.64;17.80;98635.41;5454260;26;20075;-40
2024/04/16 11:18:08;;;;;;;19.40;3.95;;;;;;;36.11;17.47;98641.59;5453459;26;20349;-39
2024/04/16 11:20:34;;;;;;;16.98;4.07;;;;;;;36.01;17.98;98637.69;5452910;26;20013;-39